Needles Airport Needles US
ICAO: KEED
IATA: EED
Category: Medium
Scheduled Services: No

Elevation: 983 ft
TransAlt. 18000 ft.

Airport Communications:
LOS ANGELES CNTR:134.65
ASOS:128.325
PRESCOTT RDO:115.2
CTAF/UNICOM:123

KEED Zoom In..

If you have problems with the map follow the link
https://www.worldairports.se/pages/airport.php?
ICAO=KEED

Runways:

(A) RW 02 length 4235 ft width 100 ft
---- / hdg 16

(B) RW 11 length 5005 ft width 100 ft
---- / hdg 106

(C) RW 20 length 4235 ft width 100 ft
---- / hdg 196

(D) RW 29 length 5005 ft width 100 ft
---- / hdg 286

Location; KEED
Day. 18 / Time. 01.56 Zulu
* Altimeter: 29.86
* Temperature: 12° c. 53.6°f.
* Wind from: 260° Speed 03 kn.
Dewpoint: -01° c.
Visibility: 10 Statute Miles.
Clouds: Few 3800 ft.
Clouds: Broken 4500 ft.
Clouds: Overcast 7000 ft.
Conditions: Light Rain.

KEED 180156Z AUTO 26003KT 10SM -RA FEW038 BKN045 OVC070 12/M01 A2986 RMK AO2 RAB46 SLP103 P0000 T01221006


Wind From 260°
Speed 03 kn.

 
 
jpsmedia.com for Web Design worldairports.se 2019   terms of use